createdAt,value
2018-10-02T00:01:38.911Z,42.1
2018-10-02T00:06:36.844Z,42.1
2018-10-02T00:11:34.636Z,42.1
2018-10-02T00:16:32.543Z,41.9
2018-10-02T00:21:30.182Z,41.8
2018-10-02T00:26:27.908Z,42
2018-10-02T00:31:25.937Z,42
2018-10-02T00:36:23.845Z,42
2018-10-02T00:41:21.724Z,42
2018-10-02T00:46:19.512Z,42.1
2018-10-02T00:51:17.160Z,42.1
2018-10-02T00:56:14.779Z,42.2
2018-10-02T01:01:12.578Z,42.1
2018-10-02T01:06:10.461Z,42.2
2018-10-02T01:11:08.221Z,42.1
2018-10-02T01:16:06.070Z,42.2
2018-10-02T01:21:03.922Z,42.1
2018-10-02T01:26:01.678Z,42
2018-10-02T01:30:59.085Z,41.9
2018-10-02T01:35:57.075Z,42
2018-10-02T01:40:54.778Z,42
2018-10-02T01:45:52.365Z,42
2018-10-02T01:50:50.077Z,42.1
2018-10-02T01:55:48.038Z,42.1
2018-10-02T02:00:45.899Z,42.1
2018-10-02T02:05:43.689Z,42.1
2018-10-02T02:10:41.509Z,42.1
2018-10-02T02:15:39.289Z,42.2
2018-10-02T02:20:37.110Z,42.2
2018-10-02T02:25:34.958Z,42.1
2018-10-02T02:30:32.723Z,42.1
2018-10-02T02:35:30.499Z,42
2018-10-02T02:40:28.128Z,41.9
2018-10-02T02:45:25.591Z,42
2018-10-02T02:50:23.420Z,42
2018-10-02T02:55:20.534Z,42
2018-10-02T03:00:18.359Z,42
2018-10-02T03:05:16.173Z,42.1
2018-10-02T03:10:14.127Z,42.1
2018-10-02T03:15:11.943Z,42.1
2018-10-02T03:20:09.738Z,42.1
2018-10-02T03:25:07.865Z,42.1
2018-10-02T03:30:05.618Z,42.2
2018-10-02T03:35:03.435Z,42.2
2018-10-02T03:40:01.308Z,42.2
2018-10-02T03:44:59.142Z,42.1
2018-10-02T03:49:56.724Z,42
2018-10-02T03:54:54.139Z,42.1
2018-10-02T03:59:52.149Z,42.1
2018-10-02T04:04:49.889Z,42.2
2018-10-02T04:09:47.981Z,42.2
2018-10-02T04:14:45.436Z,42.2
2018-10-02T04:19:43.024Z,42.3
2018-10-02T04:24:40.431Z,42.3
2018-10-02T04:29:38.174Z,42.3
2018-10-02T04:34:35.857Z,42.3
2018-10-02T04:39:33.866Z,42.3
2018-10-02T04:44:31.686Z,42.3
2018-10-02T04:49:29.703Z,42.3
2018-10-02T04:54:27.429Z,42.3
2018-10-02T04:59:25.446Z,42.3
2018-10-02T05:04:23.489Z,42.3
2018-10-02T05:09:21.348Z,42.3
2018-10-02T05:14:19.341Z,42.3
2018-10-02T05:19:17.082Z,42.3
2018-10-02T05:24:15.262Z,42.2
2018-10-02T05:29:13.326Z,42.2
2018-10-02T05:34:11.145Z,42.1
2018-10-02T05:39:08.436Z,42.1
2018-10-02T05:44:06.282Z,42.1
2018-10-02T05:49:04.505Z,42.1
2018-10-02T05:54:02.424Z,42.1
2018-10-02T05:59:00.456Z,42.1
2018-10-02T06:03:57.892Z,42.2
2018-10-02T06:08:55.537Z,42.1
2018-10-02T06:13:53.547Z,42.2
2018-10-02T06:18:51.423Z,42.2
2018-10-02T06:23:49.482Z,42.2
2018-10-02T06:28:47.340Z,42.2
2018-10-02T06:33:45.222Z,42.2
2018-10-02T06:38:43.135Z,42.3
2018-10-02T06:43:41.279Z,42.3
2018-10-02T06:48:38.938Z,42.3
2018-10-02T06:53:37.192Z,42.3
2018-10-02T06:58:34.734Z,42.3
2018-10-02T07:03:32.649Z,42.4
2018-10-02T07:08:30.706Z,42.4
2018-10-02T07:13:28.813Z,42.5
2018-10-02T07:18:26.917Z,42.5
2018-10-02T07:23:25.672Z,42.6
2018-10-02T07:28:23.569Z,42.7
2018-10-02T07:33:21.519Z,42.7
2018-10-02T07:38:19.317Z,42.8
2018-10-02T07:43:17.237Z,42.8
2018-10-02T07:48:14.980Z,42.8
2018-10-02T07:53:12.948Z,43
2018-10-02T07:58:10.756Z,43
2018-10-02T08:03:08.775Z,43.2
2018-10-02T08:08:06.850Z,43.2
2018-10-02T08:13:04.487Z,43.3
2018-10-02T08:18:02.980Z,43.3
2018-10-02T08:23:00.958Z,43.3
2018-10-02T08:27:58.780Z,43.4
2018-10-02T08:32:56.746Z,43.5
2018-10-02T08:37:54.115Z,43.6
2018-10-02T08:42:52.212Z,43.8
2018-10-02T08:47:50.441Z,43.8
2018-10-02T08:52:48.525Z,43.8
2018-10-02T08:57:46.714Z,43.9
2018-10-02T09:02:44.944Z,43.9
2018-10-02T09:07:42.826Z,43.9
2018-10-02T09:12:41.105Z,43.9
2018-10-02T09:17:38.755Z,43.9
2018-10-02T09:22:36.935Z,43.9
2018-10-02T09:27:35.276Z,44
2018-10-02T09:32:33.205Z,44
2018-10-02T09:37:31.850Z,44
2018-10-02T09:42:29.981Z,44
2018-10-02T09:47:27.547Z,44
2018-10-02T09:52:25.513Z,44
2018-10-02T09:57:23.521Z,44
2018-10-02T10:02:21.385Z,44
2018-10-02T10:07:19.550Z,44
2018-10-02T10:12:18.260Z,44.1
2018-10-02T10:17:16.573Z,44.1
2018-10-02T10:22:14.457Z,44.1
2018-10-02T10:27:12.808Z,44.1
2018-10-02T10:32:11.124Z,44.1
2018-10-02T10:37:09.064Z,44.1
2018-10-02T10:42:07.122Z,44.1
2018-10-02T10:47:05.299Z,44.1
2018-10-02T10:52:03.094Z,44.1
2018-10-02T10:57:01.238Z,44.1
2018-10-02T11:01:59.413Z,44.2
2018-10-02T11:06:57.929Z,44.2
2018-10-02T11:11:55.991Z,44.2
2018-10-02T11:16:53.790Z,44.2
2018-10-02T11:21:52.043Z,44.2
2018-10-02T11:26:50.256Z,44.2
2018-10-02T11:31:48.517Z,44.2
2018-10-02T11:36:46.662Z,44.2
2018-10-02T11:41:44.573Z,44.1
2018-10-02T11:46:42.868Z,44.1
2018-10-02T11:51:41.237Z,44.1
2018-10-02T11:56:39.278Z,44.1
2018-10-02T12:01:37.682Z,44.1
2018-10-02T12:06:35.850Z,44.1
2018-10-02T12:11:34.677Z,44.1
2018-10-02T12:16:33.051Z,44.1
2018-10-02T12:21:31.012Z,44.1
2018-10-02T12:26:29.272Z,44
2018-10-02T12:31:27.098Z,44.1
2018-10-02T12:36:25.320Z,44.1
2018-10-02T12:41:23.532Z,44.1
2018-10-02T12:46:21.646Z,44.1
2018-10-02T12:51:20.441Z,44
2018-10-02T12:56:18.301Z,44
2018-10-02T13:06:22.511Z,43.9
2018-10-02T13:11:20.532Z,44
2018-10-02T13:16:18.586Z,43.9
2018-10-02T13:21:16.549Z,43.9
2018-10-02T13:26:14.609Z,43.9
2018-10-02T13:31:12.896Z,43.9
2018-10-02T13:36:10.882Z,43.8
2018-10-02T13:41:08.931Z,43.8
2018-10-02T13:46:06.948Z,43.8
2018-10-02T13:51:04.766Z,43.7
2018-10-02T13:56:02.819Z,43.7
2018-10-02T14:01:01.037Z,43.7
2018-10-02T14:05:59.092Z,43.6
2018-10-02T14:10:57.152Z,43.6
2018-10-02T14:15:55.216Z,43.6
2018-10-02T14:20:53.275Z,43.6
2018-10-02T14:25:51.491Z,43.6
2018-10-02T14:30:49.538Z,43.6
2018-10-02T14:35:47.880Z,43.5
2018-10-02T14:40:45.867Z,43.5
2018-10-02T14:45:43.888Z,43.5
2018-10-02T14:50:41.844Z,43.5
2018-10-02T14:55:39.908Z,43.5
2018-10-02T15:00:37.810Z,43.4
2018-10-02T15:05:35.975Z,43.4
2018-10-02T15:10:34.161Z,43.4
2018-10-02T15:15:32.017Z,43.4
2018-10-02T15:20:30.012Z,43.4
2018-10-02T15:25:27.530Z,43.4
2018-10-02T15:30:25.540Z,43.4
2018-10-02T15:35:23.617Z,43.3
2018-10-02T15:40:21.579Z,43.3
2018-10-02T15:45:19.583Z,43.3
2018-10-02T15:50:17.667Z,43.2
2018-10-02T15:55:15.708Z,43.2
2018-10-02T16:00:13.785Z,43.2
2018-10-02T16:05:11.619Z,43.2
2018-10-02T16:10:09.354Z,43.2
2018-10-02T16:15:07.518Z,43.2
2018-10-02T16:20:05.642Z,43.2
2018-10-02T16:25:03.887Z,43.2
2018-10-02T16:30:01.836Z,43.2
2018-10-02T16:35:00.076Z,43.2
2018-10-02T16:39:58.340Z,43.1
2018-10-02T16:44:55.934Z,43.1
2018-10-02T16:49:54.244Z,43.1
2018-10-02T16:54:52.356Z,43.1
2018-10-02T16:59:50.706Z,43
2018-10-02T17:04:48.715Z,43.1
2018-10-02T17:09:46.821Z,43.1
2018-10-02T17:14:46.016Z,43.2
2018-10-02T17:19:43.802Z,43.2
2018-10-02T17:24:41.813Z,43.1
2018-10-02T17:29:39.842Z,43.1
2018-10-02T17:34:37.702Z,43.1
2018-10-02T17:39:35.441Z,43.1
2018-10-02T18:24:33.097Z,43.1
2018-10-02T18:29:31.012Z,43.1
2018-10-02T18:34:28.961Z,43.1
2018-10-02T18:39:26.902Z,43.1
2018-10-02T18:44:33.524Z,43.1
2018-10-02T18:49:29.924Z,43
2018-10-02T18:54:27.994Z,43
2018-10-02T18:59:25.896Z,43.1
2018-10-02T19:04:23.855Z,43.1
2018-10-02T19:09:21.953Z,43.1
2018-10-02T19:14:19.799Z,43.1
2018-10-02T19:19:17.907Z,43.1
2018-10-02T19:24:16.086Z,43
2018-10-02T19:29:13.967Z,43.1
2018-10-02T19:34:11.813Z,43.1
2018-10-02T19:39:09.806Z,43.1
2018-10-02T19:44:07.806Z,43.1
2018-10-02T19:49:05.775Z,43.1
2018-10-02T19:54:03.494Z,43.1
2018-10-02T19:59:01.470Z,43.1
2018-10-02T20:03:59.601Z,43.1
2018-10-02T20:08:57.752Z,43
2018-10-02T20:13:55.751Z,43
2018-10-02T20:18:53.799Z,43
2018-10-02T20:23:51.677Z,43
2018-10-02T20:28:49.619Z,43.1
2018-10-02T20:33:47.595Z,43.1
2018-10-02T20:38:45.575Z,43.1
2018-10-02T20:43:43.512Z,43.1
2018-10-02T20:48:41.575Z,43.1
2018-10-02T20:53:38.884Z,43.1
2018-10-02T20:58:36.849Z,43
2018-10-02T21:03:34.810Z,42.9
2018-10-02T21:08:32.866Z,42.9
2018-10-02T21:13:30.634Z,42.9
2018-10-02T21:18:28.626Z,42.9
2018-10-02T21:23:26.609Z,43
2018-10-02T21:28:24.683Z,43.1
2018-10-02T21:33:22.564Z,43.1
2018-10-02T21:38:20.501Z,43
2018-10-02T21:43:18.529Z,43
2018-10-02T21:48:16.384Z,43
2018-10-02T21:53:14.152Z,43
2018-10-02T21:58:12.149Z,43
2018-10-02T22:03:10.066Z,43
2018-10-02T22:08:08.008Z,42.9
2018-10-02T22:13:05.317Z,42.8
2018-10-02T22:18:02.508Z,42.8
2018-10-02T22:22:59.813Z,43
2018-10-02T22:27:57.669Z,43
2018-10-02T22:32:55.079Z,43
2018-10-02T22:37:52.801Z,43
2018-10-02T22:42:50.698Z,43
2018-10-02T22:47:48.833Z,42.9
2018-10-02T22:52:46.771Z,42.9
2018-10-02T22:57:44.574Z,42.9
2018-10-02T23:02:42.461Z,42.9
2018-10-02T23:07:40.256Z,42.9
2018-10-02T23:12:38.229Z,42.8
2018-10-02T23:17:36.170Z,42.8
2018-10-02T23:22:34.124Z,42.9
2018-10-02T23:27:32.068Z,42.9
2018-10-02T23:32:29.616Z,42.9
2018-10-02T23:37:27.499Z,42.9
2018-10-02T23:42:25.079Z,42.9
2018-10-02T23:47:23.004Z,42.9
2018-10-02T23:52:21.034Z,42.9
2018-10-02T23:57:18.781Z,42.9
